createdAt,value
2023-04-27T04:30:42.747Z,1.09
2023-04-27T04:31:41.777Z,1.11
2023-04-27T04:32:42.733Z,1.09
2023-04-27T04:33:43.626Z,1.08
2023-04-27T04:34:44.520Z,1.08
2023-04-27T04:35:45.449Z,1.06
2023-04-27T04:36:46.342Z,1.08
2023-04-27T04:37:47.218Z,1.09
2023-04-27T04:38:48.144Z,1.12
2023-04-27T04:39:49.015Z,1.16
2023-04-27T04:40:49.935Z,1.16
2023-04-27T04:41:50.829Z,1.18
2023-04-27T04:42:51.711Z,1.23
2023-04-27T04:43:52.622Z,1.22
2023-04-27T04:45:02.175Z,1.26
2023-04-27T04:45:54.057Z,1.33
2023-04-27T04:46:54.993Z,1.36
2023-04-27T04:47:55.913Z,1.41
2023-04-27T04:48:56.818Z,1.44
2023-04-27T04:49:57.759Z,1.47
2023-04-27T04:50:58.703Z,1.50
2023-04-27T04:51:59.551Z,1.48
2023-04-27T04:53:00.436Z,1.47
2023-04-27T04:54:02.169Z,1.42
2023-04-27T04:55:02.154Z,1.41
2023-04-27T04:56:03.031Z,1.36
2023-04-27T04:57:03.920Z,1.34
2023-04-27T04:58:04.904Z,1.36
2023-04-27T04:59:05.361Z,1.42
2023-04-27T05:00:06.273Z,1.45
2023-04-27T05:01:07.243Z,1.47
2023-04-27T05:02:07.653Z,1.48
2023-04-27T05:03:08.683Z,1.48
2023-04-27T05:04:09.296Z,1.48
2023-04-27T05:05:09.884Z,1.44
2023-04-27T05:06:10.780Z,1.42
2023-04-27T05:07:14.090Z,1.42
2023-04-27T05:08:12.186Z,1.44
2023-04-27T05:09:13.231Z,1.44
2023-04-27T05:10:13.754Z,1.48
2023-04-27T05:11:14.645Z,1.51
2023-04-27T05:12:15.542Z,1.59
2023-04-27T05:13:16.443Z,1.65
2023-04-27T05:14:17.330Z,1.68
2023-04-27T05:15:18.285Z,1.72
2023-04-27T05:16:19.299Z,1.73
2023-04-27T05:17:19.673Z,1.77
2023-04-27T05:18:20.551Z,1.81
2023-04-27T05:19:21.460Z,1.86
2023-04-27T05:20:22.464Z,1.87
2023-04-27T05:21:22.889Z,1.90
2023-04-27T05:22:23.876Z,1.99
2023-04-27T05:23:24.335Z,2.03
2023-04-27T05:24:25.228Z,2.10
2023-04-27T05:25:26.139Z,2.17
2023-04-27T05:26:27.020Z,2.27
2023-04-27T05:27:27.910Z,2.34
2023-04-27T05:28:28.799Z,2.38
2023-04-27T05:29:29.685Z,2.42
2023-04-27T05:30:30.601Z,2.52
2023-04-27T05:31:31.552Z,2.57
2023-04-27T05:32:32.490Z,2.66
2023-04-27T05:33:33.360Z,2.74
2023-04-27T05:34:34.309Z,2.79
2023-04-27T05:35:34.760Z,2.87
2023-04-27T05:36:35.620Z,2.96
2023-04-27T05:37:36.544Z,3.05
2023-04-27T05:38:37.418Z,3.10
2023-04-27T05:39:38.320Z,3.18
2023-04-27T05:40:39.209Z,3.24
2023-04-27T05:41:40.142Z,3.31
2023-04-27T05:42:41.045Z,3.39
2023-04-27T05:43:41.920Z,3.42
2023-04-27T05:44:42.556Z,3.40
2023-04-27T05:45:43.526Z,3.48
2023-04-27T05:46:44.421Z,3.54
2023-04-27T05:47:45.314Z,3.60
2023-04-27T05:48:46.182Z,3.66
2023-04-27T05:49:47.086Z,3.76
2023-04-27T05:50:47.973Z,3.84
2023-04-27T05:51:48.890Z,3.93
2023-04-27T05:52:49.756Z,3.98
2023-04-27T05:53:50.633Z,4.04
2023-04-27T05:54:51.558Z,4.09
2023-04-27T05:55:52.470Z,4.16
2023-04-27T05:56:53.400Z,4.26
2023-04-27T05:58:04.608Z,4.32
2023-04-27T05:58:56.098Z,4.41
2023-04-27T05:59:55.975Z,4.47
2023-04-27T06:00:56.872Z,4.59
2023-04-27T06:01:57.924Z,4.69
2023-04-27T06:02:58.423Z,4.77
2023-04-27T06:03:58.888Z,4.86
2023-04-27T06:04:59.403Z,4.91
2023-04-27T06:06:00.255Z,5.02
2023-04-27T06:07:01.147Z,5.09
2023-04-27T06:08:02.057Z,5.15
2023-04-27T06:09:02.957Z,5.27
2023-04-27T06:10:03.856Z,5.43
2023-04-27T06:11:04.746Z,5.53
2023-04-27T06:12:05.632Z,5.63
2023-04-27T06:13:06.513Z,5.75
2023-04-27T06:14:07.400Z,5.76
2023-04-27T06:15:08.313Z,5.83
2023-04-27T06:16:09.219Z,5.86
2023-04-27T06:17:10.092Z,5.90
2023-04-27T06:18:11.016Z,5.93
2023-04-27T06:19:11.717Z,6.01
2023-04-27T06:20:12.258Z,6.09
2023-04-27T06:21:13.133Z,6.21
2023-04-27T06:22:14.003Z,6.36
2023-04-27T06:23:14.939Z,6.41
2023-04-27T06:24:15.795Z,6.52
2023-04-27T06:25:16.705Z,6.59
2023-04-27T06:26:17.597Z,6.76
2023-04-27T06:27:18.493Z,6.95
2023-04-27T06:28:19.358Z,7.21
2023-04-27T06:29:20.241Z,7.58
2023-04-27T06:30:21.154Z,7.93
2023-04-27T06:31:22.086Z,8.33
2023-04-27T06:32:23.004Z,8.70
2023-04-27T06:33:23.867Z,9.15
2023-04-27T06:34:24.785Z,9.43
2023-04-27T06:35:25.700Z,9.75
2023-04-27T06:36:26.594Z,10.04
2023-04-27T06:37:27.492Z,10.36
2023-04-27T06:38:28.374Z,10.61
2023-04-27T06:39:29.242Z,10.60
2023-04-27T06:40:30.166Z,10.55
2023-04-27T06:41:31.051Z,10.63
2023-04-27T06:42:31.953Z,10.74
2023-04-27T06:43:32.880Z,10.86
2023-04-27T06:44:33.753Z,10.92
2023-04-27T06:45:34.691Z,11.19
2023-04-27T06:46:35.592Z,11.54
2023-04-27T06:47:36.490Z,11.73
2023-04-27T06:48:37.345Z,11.79
2023-04-27T06:49:38.238Z,11.99
2023-04-27T06:50:39.132Z,12.10
2023-04-27T06:51:40.019Z,12.07
2023-04-27T06:52:40.908Z,12.24
2023-04-27T06:53:41.817Z,12.52
2023-04-27T06:54:42.720Z,12.72
2023-04-27T06:55:45.557Z,12.86
2023-04-27T06:56:44.212Z,12.74
2023-04-27T06:57:45.100Z,12.77
2023-04-27T06:58:46.008Z,12.86
2023-04-27T06:59:46.928Z,12.95
2023-04-27T07:00:47.793Z,12.86
2023-04-27T07:01:48.720Z,12.83
2023-04-27T07:02:49.766Z,12.60
2023-04-27T07:03:50.328Z,12.57
2023-04-27T07:04:50.796Z,12.64
2023-04-27T07:05:51.716Z,12.71
2023-04-27T07:06:52.576Z,12.79
2023-04-27T07:07:53.462Z,12.59
2023-04-27T07:08:54.351Z,12.46
2023-04-27T07:09:55.263Z,12.42
2023-04-27T07:10:56.158Z,12.45
2023-04-27T07:11:57.028Z,12.28
2023-04-27T07:12:57.919Z,12.19
2023-04-27T07:13:58.812Z,12.35
2023-04-27T07:14:59.719Z,12.23
2023-04-27T07:16:00.645Z,12.29
2023-04-27T07:17:01.530Z,12.32
2023-04-27T07:18:02.519Z,12.09
2023-04-27T07:19:03.401Z,12.09
2023-04-27T07:20:04.297Z,12.13
2023-04-27T07:21:05.189Z,12.07
2023-04-27T07:22:06.081Z,12.09
2023-04-27T07:23:06.966Z,11.90
2023-04-27T07:24:07.871Z,11.96
2023-04-27T07:25:08.753Z,11.90
2023-04-27T07:26:09.636Z,11.96
2023-04-27T07:27:10.526Z,11.99
2023-04-27T07:28:11.427Z,11.99
2023-04-27T07:29:25.560Z,12.01
2023-04-27T07:30:14.137Z,11.98
2023-04-27T07:31:14.028Z,11.65
2023-04-27T07:32:14.991Z,11.61
2023-04-27T07:33:15.449Z,11.54
2023-04-27T07:34:16.363Z,11.61
2023-04-27T07:35:17.252Z,11.72
2023-04-27T07:36:18.137Z,11.43
2023-04-27T07:37:19.014Z,11.24
2023-04-27T07:38:19.918Z,11.25
2023-04-27T07:39:20.841Z,11.18
2023-04-27T07:40:21.719Z,11.18
2023-04-27T07:41:22.612Z,11.21
2023-04-27T07:42:23.565Z,11.27
2023-04-27T07:43:24.446Z,11.35
2023-04-27T07:44:25.369Z,11.33
2023-04-27T07:45:26.278Z,11.28
2023-04-27T07:46:27.173Z,11.33
2023-04-27T07:47:28.035Z,11.24
2023-04-27T07:48:29.052Z,11.19
2023-04-27T07:49:29.939Z,11.07
2023-04-27T07:50:30.857Z,11.19
2023-04-27T07:51:31.740Z,11.35
2023-04-27T07:52:32.616Z,11.35
2023-04-27T07:53:33.507Z,11.47
2023-04-27T07:54:34.523Z,11.51
2023-04-27T07:55:34.907Z,11.57
2023-04-27T07:56:35.810Z,11.70
2023-04-27T07:57:36.696Z,11.73
2023-04-27T07:58:37.586Z,11.75
2023-04-27T07:59:38.499Z,11.83
2023-04-27T08:00:39.388Z,11.95
2023-04-27T08:01:40.324Z,11.99
2023-04-27T08:02:41.508Z,12.07
2023-04-27T08:03:42.262Z,11.98
2023-04-27T08:04:43.256Z,11.96
2023-04-27T08:05:43.760Z,12.10
2023-04-27T08:06:44.800Z,12.21
2023-04-27T08:07:45.815Z,12.24
2023-04-27T08:08:45.773Z,12.27
2023-04-27T08:09:46.678Z,12.14
2023-04-27T08:10:47.560Z,12.13
2023-04-27T08:11:48.441Z,12.16
2023-04-27T08:12:49.327Z,11.98
2023-04-27T08:13:50.211Z,11.82
2023-04-27T08:14:51.128Z,11.99
2023-04-27T08:15:52.007Z,11.96
2023-04-27T08:16:53.004Z,12.16
2023-04-27T08:17:53.490Z,12.31
2023-04-27T08:18:54.418Z,12.45
2023-04-27T08:19:55.309Z,12.50
2023-04-27T08:20:56.214Z,12.42
2023-04-27T08:21:57.133Z,12.64
2023-04-27T08:22:58.007Z,12.72
2023-04-27T08:23:58.903Z,12.77
2023-04-27T08:24:59.821Z,12.90
2023-04-27T08:26:00.725Z,12.92
2023-04-27T08:27:01.603Z,12.90
2023-04-27T08:28:02.482Z,12.78
2023-04-27T08:29:15.257Z,12.67
2023-04-27T08:30:05.318Z,12.77
2023-04-27T08:31:04.773Z,12.79
2023-04-27T08:32:05.616Z,12.82
2023-04-27T08:33:06.544Z,13.00
2023-04-27T08:34:07.422Z,13.08
2023-04-27T08:35:08.342Z,13.14
2023-04-27T08:36:09.203Z,13.23
2023-04-27T08:37:10.098Z,13.38
2023-04-27T08:38:10.996Z,13.46
2023-04-27T08:39:12.135Z,13.62
2023-04-27T08:40:12.598Z,13.73
2023-04-27T08:41:21.510Z,13.75
2023-04-27T08:42:15.258Z,13.64
2023-04-27T08:43:15.158Z,13.62
2023-04-27T08:44:16.115Z,13.75
2023-04-27T08:45:16.988Z,13.87
2023-04-27T08:46:17.945Z,13.91
2023-04-27T08:47:23.523Z,13.99
2023-04-27T08:48:20.731Z,14.04
2023-04-27T08:49:20.470Z,14.06
2023-04-27T08:50:21.030Z,13.88
2023-04-27T08:51:21.927Z,13.91
2023-04-27T08:52:22.829Z,13.96
2023-04-27T08:53:23.701Z,13.96
2023-04-27T08:54:24.614Z,14.04
2023-04-27T08:55:25.528Z,13.95
2023-04-27T08:56:26.420Z,13.77
2023-04-27T08:57:27.317Z,13.73
2023-04-27T08:58:28.191Z,13.64
2023-04-27T08:59:29.073Z,13.73
2023-04-27T09:00:29.993Z,13.95
2023-04-27T09:01:30.910Z,14.14
2023-04-27T09:02:31.888Z,14.28
2023-04-27T09:03:32.432Z,14.20
2023-04-27T09:04:33.033Z,14.32
2023-04-27T09:05:33.516Z,14.32
2023-04-27T09:06:34.508Z,14.14
2023-04-27T09:07:34.959Z,14.09
2023-04-27T09:08:35.867Z,14.09
2023-04-27T09:09:36.787Z,14.14
2023-04-27T09:10:37.730Z,14.20
2023-04-27T09:11:38.633Z,14.39
2023-04-27T09:12:39.524Z,14.46
2023-04-27T09:13:40.396Z,14.51
2023-04-27T09:14:41.286Z,14.37
2023-04-27T09:15:42.213Z,14.36
2023-04-27T09:16:43.283Z,14.35
2023-04-27T09:17:43.675Z,14.35
2023-04-27T09:18:44.581Z,14.43
2023-04-27T09:19:45.477Z,14.32
2023-04-27T09:20:46.381Z,14.33
2023-04-27T09:21:47.812Z,14.36
2023-04-27T09:22:48.174Z,14.33
2023-04-27T09:23:49.062Z,14.40
2023-04-27T09:24:49.965Z,14.43
2023-04-27T09:25:50.885Z,14.43
2023-04-27T09:26:51.781Z,14.42
2023-04-27T09:27:52.673Z,14.62
2023-04-27T09:28:53.568Z,14.69
2023-04-27T09:29:54.467Z,14.69
2023-04-27T09:30:55.358Z,14.62
2023-04-27T09:31:56.345Z,14.39
2023-04-27T09:32:56.803Z,14.29
2023-04-27T09:33:57.651Z,14.21
2023-04-27T09:34:58.572Z,14.39
2023-04-27T09:35:59.487Z,14.45
2023-04-27T09:37:00.345Z,14.57
2023-04-27T09:38:01.278Z,14.70
2023-04-27T09:39:02.151Z,14.55
2023-04-27T09:40:03.047Z,14.80
2023-04-27T09:41:03.954Z,14.91
2023-04-27T09:42:04.852Z,15.06
2023-04-27T09:43:05.757Z,14.69
2023-04-27T09:44:06.642Z,14.39
2023-04-27T09:45:07.537Z,13.88
2023-04-27T09:46:08.497Z,13.77
2023-04-27T09:47:09.354Z,13.42
2023-04-27T09:48:10.246Z,13.05
2023-04-27T09:49:11.261Z,12.86
2023-04-27T09:50:11.688Z,12.67
2023-04-27T09:51:12.635Z,12.47
2023-04-27T09:52:13.489Z,12.41
2023-04-27T09:53:14.373Z,12.34
2023-04-27T09:54:15.274Z,12.31
2023-04-27T09:55:16.201Z,12.27
2023-04-27T09:56:17.102Z,12.24
2023-04-27T09:57:18.004Z,12.41
2023-04-27T09:58:18.873Z,12.77
2023-04-27T09:59:19.780Z,13.12
2023-04-27T10:00:20.704Z,13.20
2023-04-27T10:01:21.693Z,13.46
2023-04-27T10:02:24.869Z,13.97
2023-04-27T10:03:22.757Z,14.33
2023-04-27T10:04:23.280Z,14.43
2023-04-27T10:05:23.911Z,14.20
2023-04-27T10:06:24.356Z,13.91
2023-04-27T10:07:25.247Z,13.64
2023-04-27T10:08:26.132Z,13.67
2023-04-27T10:09:27.041Z,14.00
2023-04-27T10:10:28.013Z,14.28
2023-04-27T10:11:28.908Z,14.25
2023-04-27T10:12:29.797Z,14.25
2023-04-27T10:13:30.711Z,14.33
2023-04-27T10:14:31.644Z,14.12
2023-04-27T10:15:32.631Z,14.28
2023-04-27T10:16:33.525Z,14.07
2023-04-27T10:17:34.477Z,13.71
2023-04-27T10:18:35.351Z,13.88
2023-04-27T10:19:36.261Z,14.14
2023-04-27T10:20:37.215Z,14.15
2023-04-27T10:21:38.055Z,14.27
2023-04-27T10:22:38.975Z,14.47
2023-04-27T10:23:39.858Z,14.46
2023-04-27T10:24:40.816Z,14.36
2023-04-27T10:25:41.791Z,14.40
2023-04-27T10:26:42.227Z,14.72
2023-04-27T10:27:43.112Z,14.50
2023-04-27T10:28:43.997Z,14.24
2023-04-27T10:29:44.909Z,14.29
2023-04-27T10:30:45.861Z,14.40
2023-04-27T10:31:46.734Z,14.64
2023-04-27T10:32:47.638Z,14.78
2023-04-27T10:33:48.491Z,14.84
2023-04-27T10:34:49.426Z,14.95
2023-04-27T10:35:50.330Z,14.81
2023-04-27T10:36:51.218Z,14.46
2023-04-27T10:37:52.122Z,14.10
2023-04-27T10:38:52.990Z,14.15
2023-04-27T10:39:54.964Z,14.51
2023-04-27T10:40:54.415Z,14.61
2023-04-27T10:41:55.317Z,14.86
2023-04-27T10:42:56.200Z,15.13
2023-04-27T10:43:57.097Z,15.46
2023-04-27T10:46:46.509Z,15.49
2023-04-27T10:47:47.418Z,15.69
2023-04-27T10:48:48.315Z,15.60
2023-04-27T10:49:49.249Z,15.59
2023-04-27T10:50:50.129Z,15.51
2023-04-27T10:51:51.031Z,15.60
2023-04-27T10:52:51.912Z,15.62
2023-04-27T10:53:52.802Z,15.86
2023-04-27T10:54:53.695Z,16.05
2023-04-27T10:55:54.611Z,16.14
2023-04-27T10:56:55.478Z,16.23
2023-04-27T10:57:56.391Z,16.30
2023-04-27T10:58:57.267Z,16.33
2023-04-27T10:59:58.197Z,16.48
2023-04-27T11:00:59.037Z,16.63
2023-04-27T11:01:59.983Z,16.75
2023-04-27T11:03:01.028Z,16.48
2023-04-27T11:04:01.523Z,16.34
2023-04-27T11:05:02.569Z,16.39
2023-04-27T11:06:03.037Z,16.41
2023-04-27T11:07:03.937Z,16.42
2023-04-27T11:08:04.854Z,16.58
2023-04-27T11:09:05.771Z,16.79
2023-04-27T11:10:06.673Z,16.96
2023-04-27T11:11:07.564Z,17.01
2023-04-27T11:12:08.497Z,17.06
2023-04-27T11:13:09.400Z,17.00
2023-04-27T11:14:10.323Z,17.12
2023-04-27T11:15:11.245Z,16.91
2023-04-27T11:16:12.156Z,16.71
2023-04-27T11:17:13.072Z,16.67
2023-04-27T11:18:13.953Z,16.75
2023-04-27T11:19:15.049Z,16.58
2023-04-27T11:20:15.641Z,16.50
2023-04-27T11:21:16.590Z,16.48
2023-04-27T11:22:17.509Z,16.35
2023-04-27T11:23:18.392Z,16.41
2023-04-27T11:24:19.233Z,16.56
2023-04-27T11:25:20.141Z,16.63
2023-04-27T11:26:21.082Z,16.61
2023-04-27T11:27:21.937Z,16.71
2023-04-27T11:28:22.862Z,16.56
2023-04-27T11:29:23.737Z,16.57
2023-04-27T11:30:24.685Z,16.63
2023-04-27T11:31:25.617Z,16.38
2023-04-27T11:32:26.591Z,16.43
2023-04-27T11:33:27.463Z,16.43
2023-04-27T11:34:28.350Z,16.60
2023-04-27T11:35:29.261Z,16.71
2023-04-27T11:36:30.136Z,16.76
2023-04-27T11:37:31.053Z,17.00
2023-04-27T11:38:31.923Z,17.12
2023-04-27T11:39:32.822Z,17.00
2023-04-27T11:40:33.711Z,16.71
2023-04-27T11:41:34.596Z,16.60
2023-04-27T11:42:35.499Z,16.68
2023-04-27T11:43:36.390Z,16.48
2023-04-27T11:44:37.254Z,16.02
2023-04-27T11:45:38.157Z,15.54
2023-04-27T11:46:39.082Z,15.27
2023-04-27T11:47:39.970Z,15.02
2023-04-27T11:48:40.849Z,14.96
2023-04-27T11:49:41.747Z,14.78
2023-04-27T11:50:42.689Z,14.83
2023-04-27T11:51:43.555Z,15.09
2023-04-27T11:52:44.603Z,15.35
2023-04-27T11:53:44.984Z,15.54
2023-04-27T11:54:45.847Z,15.82
2023-04-27T11:55:46.767Z,15.94
2023-04-27T11:56:47.645Z,16.00
2023-04-27T11:57:48.588Z,16.04
2023-04-27T11:58:49.468Z,16.12
2023-04-27T11:59:50.335Z,16.11
2023-04-27T12:00:51.242Z,16.20
2023-04-27T12:01:52.160Z,16.28
2023-04-27T12:02:53.208Z,16.38
2023-04-27T12:03:53.907Z,16.53
2023-04-27T12:04:54.496Z,16.46
2023-04-27T12:05:55.284Z,16.33
2023-04-27T12:06:55.858Z,16.11
2023-04-27T12:07:56.779Z,15.78
2023-04-27T12:08:57.649Z,15.75
2023-04-27T12:10:00.641Z,15.72
2023-04-27T12:10:59.364Z,15.76
2023-04-27T12:12:00.225Z,16.14
2023-04-27T12:13:01.168Z,16.41
2023-04-27T12:14:02.025Z,16.58
2023-04-27T12:15:02.914Z,16.75
2023-04-27T12:16:03.822Z,17.03
2023-04-27T12:17:04.816Z,17.25
2023-04-27T12:18:05.321Z,17.48
2023-04-27T12:19:05.816Z,17.54
2023-04-27T12:20:06.701Z,17.43
2023-04-27T12:21:08.291Z,17.41
2023-04-27T12:22:08.409Z,17.44
2023-04-27T12:23:09.378Z,17.46
2023-04-27T12:24:10.225Z,17.52
2023-04-27T12:25:11.158Z,17.54
2023-04-27T12:26:14.409Z,17.46
2023-04-27T12:27:12.585Z,17.44
2023-04-27T12:28:13.474Z,17.30
2023-04-27T12:29:14.392Z,17.48
2023-04-27T12:30:15.267Z,17.34
2023-04-27T12:31:16.304Z,16.96
2023-04-27T12:32:16.737Z,16.57
2023-04-27T12:33:17.695Z,16.21
2023-04-27T12:34:18.564Z,15.94
2023-04-27T12:35:19.492Z,16.07
2023-04-27T12:36:20.392Z,15.82
2023-04-27T12:37:21.278Z,15.64
2023-04-27T12:38:22.297Z,15.86
2023-04-27T12:39:22.686Z,16.08
2023-04-27T12:40:23.608Z,16.11
2023-04-27T12:41:24.578Z,16.27
2023-04-27T12:42:25.524Z,16.39
2023-04-27T12:43:26.413Z,16.60
2023-04-27T12:44:27.303Z,16.67
2023-04-27T12:45:28.217Z,16.83
2023-04-27T12:46:29.326Z,16.98
2023-04-27T12:47:49.815Z,17.03
2023-04-27T12:48:31.553Z,17.22
2023-04-27T12:49:31.494Z,17.22
2023-04-27T12:50:32.687Z,17.12
2023-04-27T12:51:33.143Z,17.01
2023-04-27T12:52:34.140Z,16.96
2023-04-27T12:53:35.034Z,17.07
2023-04-27T12:54:35.908Z,16.97
2023-04-27T12:55:36.831Z,16.88
2023-04-27T12:56:37.709Z,16.86
2023-04-27T12:57:38.636Z,16.83
2023-04-27T12:58:39.489Z,16.81
2023-04-27T12:59:40.395Z,16.85
2023-04-27T13:00:41.297Z,16.85
2023-04-27T13:01:42.297Z,16.71
2023-04-27T13:02:43.277Z,16.31
2023-04-27T13:03:43.925Z,16.17
2023-04-27T13:04:44.590Z,16.34
2023-04-27T13:05:45.465Z,16.46
2023-04-27T13:06:46.367Z,16.43
2023-04-27T13:07:47.277Z,16.50
2023-04-27T13:08:48.171Z,16.49
2023-04-27T13:09:49.125Z,16.64
2023-04-27T13:10:49.987Z,16.71
2023-04-27T13:11:50.893Z,16.68
2023-04-27T13:12:51.779Z,16.70
2023-04-27T13:13:52.715Z,16.67
2023-04-27T13:14:53.607Z,16.46
2023-04-27T13:15:54.546Z,16.41
2023-04-27T13:16:55.410Z,16.35
2023-04-27T13:17:56.372Z,16.23
2023-04-27T13:18:57.297Z,16.24
2023-04-27T13:19:58.250Z,16.23
2023-04-27T13:20:59.110Z,16.07
2023-04-27T13:22:00.014Z,15.93
2023-04-27T13:23:00.905Z,16.01
2023-04-27T13:24:01.836Z,16.07
2023-04-27T13:25:02.723Z,16.00
2023-04-27T13:26:03.614Z,16.14
2023-04-27T13:27:04.512Z,16.02
2023-04-27T13:28:05.394Z,16.02
2023-04-27T13:29:06.313Z,16.17
2023-04-27T13:30:07.232Z,16.24
2023-04-27T13:31:08.245Z,16.23
2023-04-27T13:32:08.698Z,16.39
2023-04-27T13:33:21.878Z,16.48
2023-04-27T13:34:11.426Z,16.53
2023-04-27T13:35:11.275Z,16.66
2023-04-27T13:36:12.185Z,16.78
2023-04-27T13:37:13.066Z,16.89
2023-04-27T13:38:13.952Z,16.88
2023-04-27T13:39:14.879Z,16.60
2023-04-27T13:40:15.749Z,16.30
2023-04-27T13:41:16.654Z,16.17
2023-04-27T13:42:17.515Z,16.14
2023-04-27T13:43:18.405Z,16.25
2023-04-27T13:44:19.346Z,16.50
2023-04-27T13:45:20.240Z,16.52
2023-04-27T13:46:21.159Z,16.58
2023-04-27T13:47:22.040Z,16.52
2023-04-27T13:48:22.918Z,16.56
2023-04-27T13:49:23.829Z,16.73
2023-04-27T13:50:24.705Z,16.57
2023-04-27T13:51:25.593Z,16.53
2023-04-27T13:52:26.491Z,16.71
2023-04-27T13:53:27.395Z,16.70
2023-04-27T13:54:28.317Z,16.71
2023-04-27T13:55:29.189Z,16.79
2023-04-27T13:56:30.086Z,16.70
2023-04-27T13:57:30.976Z,16.67
2023-04-27T13:58:31.860Z,16.73
2023-04-27T13:59:32.807Z,16.67
2023-04-27T14:00:33.749Z,16.66
2023-04-27T14:01:34.638Z,16.63
2023-04-27T14:02:35.566Z,16.57
2023-04-27T14:03:36.622Z,16.50
2023-04-27T14:04:37.233Z,16.46
2023-04-27T14:05:37.613Z,16.23
2023-04-27T14:06:38.488Z,15.93
2023-04-27T14:07:39.414Z,15.84
2023-04-27T14:08:40.331Z,15.86
2023-04-27T14:09:41.440Z,16.11
2023-04-27T14:10:41.799Z,16.12
2023-04-27T14:11:55.115Z,16.08
2023-04-27T14:12:44.493Z,16.11
2023-04-27T14:13:44.418Z,16.21
2023-04-27T14:14:45.351Z,16.28
2023-04-27T14:15:46.235Z,16.42
2023-04-27T14:16:47.148Z,16.34
2023-04-27T14:17:48.142Z,16.21
2023-04-27T14:18:48.593Z,16.23
2023-04-27T14:19:49.501Z,16.07
2023-04-27T14:20:50.376Z,16.12
2023-04-27T14:21:51.271Z,16.09
2023-04-27T14:22:52.171Z,16.07
2023-04-27T14:23:53.095Z,15.94
2023-04-27T14:24:54.035Z,15.74
2023-04-27T14:25:54.912Z,15.75
2023-04-27T14:26:55.797Z,15.75
2023-04-27T14:27:56.671Z,15.69
2023-04-27T14:28:58.739Z,15.59
2023-04-27T14:29:58.205Z,15.59
2023-04-27T14:30:59.103Z,15.71
2023-04-27T14:32:00.032Z,15.78
2023-04-27T14:33:00.987Z,15.80
2023-04-27T14:34:01.895Z,15.74
2023-04-27T14:35:02.797Z,15.86
2023-04-27T14:36:03.695Z,15.83
2023-04-27T14:37:04.602Z,15.82
2023-04-27T14:38:05.569Z,15.86
2023-04-27T14:39:06.485Z,15.87
2023-04-27T14:40:07.411Z,15.87
2023-04-27T14:41:08.302Z,15.76
2023-04-27T14:42:09.284Z,15.72
2023-04-27T14:43:11.085Z,15.71
2023-04-27T14:44:11.091Z,15.59
2023-04-27T14:45:11.493Z,15.59
2023-04-27T14:46:20.858Z,15.65
2023-04-27T14:47:14.450Z,15.65
2023-04-27T14:48:14.413Z,15.69
2023-04-27T14:49:15.036Z,15.80
2023-04-27T14:50:15.695Z,15.74
2023-04-27T14:51:16.594Z,15.72
2023-04-27T14:52:17.516Z,15.84
2023-04-27T14:53:18.418Z,15.86
2023-04-27T14:54:19.393Z,15.75
2023-04-27T14:55:19.871Z,15.69
2023-04-27T14:56:20.743Z,15.72
2023-04-27T14:57:21.670Z,15.75
2023-04-27T14:58:22.562Z,15.78
2023-04-27T14:59:23.677Z,15.54
2023-04-27T15:00:24.159Z,15.20
2023-04-27T15:01:25.085Z,15.13
2023-04-27T15:02:26.053Z,15.13
2023-04-27T15:03:26.617Z,14.95
2023-04-27T15:04:27.139Z,14.81
2023-04-27T15:05:27.570Z,14.89
2023-04-27T15:06:28.463Z,14.94
2023-04-27T15:07:29.361Z,14.91
2023-04-27T15:08:33.481Z,14.83
2023-04-27T15:09:31.125Z,14.83
2023-04-27T15:10:32.030Z,14.91
2023-04-27T15:11:32.966Z,14.92
2023-04-27T15:12:33.871Z,14.96
2023-04-27T15:13:34.736Z,14.95
2023-04-27T15:14:35.655Z,14.99
2023-04-27T15:15:36.586Z,14.94
2023-04-27T15:16:37.530Z,14.95
2023-04-27T15:17:38.448Z,14.92
2023-04-27T15:18:39.403Z,14.96
2023-04-27T15:19:40.325Z,14.95
2023-04-27T15:20:42.513Z,14.81
2023-04-27T15:21:41.925Z,14.61
2023-04-27T15:22:42.805Z,14.45
2023-04-27T15:23:43.749Z,14.42
2023-04-27T15:24:44.646Z,14.42
2023-04-27T15:25:45.563Z,14.40
2023-04-27T15:26:46.449Z,14.36
2023-04-27T15:27:47.344Z,14.28
2023-04-27T15:28:48.264Z,14.24
2023-04-27T15:29:49.164Z,14.21
2023-04-27T15:30:50.064Z,14.20
2023-04-27T15:31:51.170Z,14.22
2023-04-27T15:32:51.658Z,14.29
2023-04-27T15:33:52.128Z,14.36
2023-04-27T15:34:53.018Z,14.43
2023-04-27T15:35:53.949Z,14.42
2023-04-27T15:36:54.907Z,14.43
2023-04-27T15:37:55.324Z,14.32
2023-04-27T15:38:56.300Z,14.10
2023-04-27T15:39:57.158Z,13.95
2023-04-27T15:40:58.156Z,13.85
2023-04-27T15:41:59.059Z,13.84
2023-04-27T15:42:59.940Z,13.87
2023-04-27T15:44:00.863Z,13.88
2023-04-27T15:45:01.770Z,13.89
2023-04-27T15:46:02.659Z,13.96
2023-04-27T15:47:03.685Z,13.99
2023-04-27T15:48:04.115Z,13.96
2023-04-27T15:49:04.659Z,14.00
2023-04-27T15:50:05.559Z,14.00
2023-04-27T15:51:08.829Z,13.91
2023-04-27T15:52:07.044Z,13.84
2023-04-27T15:53:07.930Z,13.81
2023-04-27T15:54:08.867Z,13.78
2023-04-27T15:55:09.819Z,13.77
2023-04-27T15:56:10.732Z,13.79
2023-04-27T15:57:11.590Z,13.85
2023-04-27T15:58:12.490Z,13.88
2023-04-27T15:59:13.632Z,13.91
2023-04-27T16:00:14.191Z,13.99
2023-04-27T16:01:15.125Z,14.03
2023-04-27T16:02:16.250Z,14.07
2023-04-27T16:03:16.835Z,14.06
2023-04-27T16:04:17.475Z,14.06
2023-04-27T16:05:17.939Z,14.06
2023-04-27T16:06:18.894Z,14.04
2023-04-27T16:07:19.776Z,14.02
2023-04-27T16:08:20.743Z,14.07
2023-04-27T16:09:21.657Z,14.06
2023-04-27T16:10:22.712Z,13.97
2023-04-27T16:11:23.369Z,13.91
2023-04-27T16:12:23.812Z,13.96
2023-04-27T16:13:24.690Z,13.95
2023-04-27T16:14:25.652Z,13.97
2023-04-27T16:15:26.598Z,14.03
2023-04-27T16:16:27.545Z,14.06
2023-04-27T16:17:28.458Z,14.12
2023-04-27T16:18:29.406Z,14.10
2023-04-27T16:19:30.345Z,13.96
2023-04-27T16:20:31.596Z,13.84
2023-04-27T16:21:31.865Z,13.81
2023-04-27T16:22:32.775Z,13.77
2023-04-27T16:23:33.701Z,13.78
2023-04-27T16:24:34.601Z,13.75
2023-04-27T16:25:35.482Z,13.77
2023-04-27T16:26:36.685Z,13.79
2023-04-27T16:27:37.117Z,13.82
2023-04-27T16:28:38.092Z,13.79
2023-04-27T16:29:38.963Z,13.79
2023-04-27T16:30:39.916Z,13.77
2023-04-27T16:31:40.844Z,13.77
2023-04-27T16:32:41.825Z,13.69
2023-04-27T16:33:42.709Z,13.48
2023-04-27T16:34:43.599Z,13.41
2023-04-27T16:35:44.538Z,13.32
2023-04-27T16:36:45.416Z,13.28
2023-04-27T16:37:46.301Z,13.30
2023-04-27T16:38:47.238Z,13.32
2023-04-27T16:39:48.125Z,13.41
2023-04-27T16:40:49.034Z,13.44
2023-04-27T16:41:49.936Z,13.42
2023-04-27T16:42:50.815Z,13.30
2023-04-27T16:43:51.705Z,13.19
2023-04-27T16:44:52.595Z,13.20
2023-04-27T16:45:53.571Z,13.17
2023-04-27T16:46:54.542Z,13.10
2023-04-27T16:47:55.435Z,13.07
2023-04-27T16:48:56.348Z,13.04
2023-04-27T16:49:57.260Z,13.04
2023-04-27T16:50:58.122Z,13.10
2023-04-27T16:51:59.026Z,13.05
2023-04-27T16:52:59.921Z,13.05
2023-04-27T16:54:01.183Z,13.03
2023-04-27T16:55:01.625Z,13.00
2023-04-27T16:56:02.516Z,13.01
2023-04-27T16:57:03.421Z,13.05
2023-04-27T16:58:04.273Z,13.00
2023-04-27T16:59:05.233Z,12.97
2023-04-27T17:00:06.093Z,12.97
2023-04-27T17:01:07.013Z,12.93
2023-04-27T17:02:23.015Z,12.85
2023-04-27T17:03:09.872Z,12.79
2023-04-27T17:04:10.796Z,12.78
2023-04-27T17:05:10.282Z,12.70
2023-04-27T17:06:13.197Z,12.67
2023-04-27T17:07:12.077Z,12.68
2023-04-27T17:08:13.012Z,12.71
2023-04-27T17:09:14.177Z,12.70
2023-04-27T17:10:14.746Z,12.72
2023-04-27T17:11:15.606Z,12.65
2023-04-27T17:12:16.559Z,12.62
2023-04-27T17:13:17.462Z,12.59
2023-04-27T17:14:18.389Z,12.53
2023-04-27T17:15:19.269Z,12.49
2023-04-27T17:16:20.301Z,12.50
2023-04-27T17:17:20.836Z,12.47
2023-04-27T17:18:21.291Z,12.47
2023-04-27T17:19:22.212Z,12.46
2023-04-27T17:20:23.117Z,12.41
2023-04-27T17:21:23.985Z,12.39
2023-04-27T17:22:24.929Z,12.34
2023-04-27T17:23:25.846Z,12.29
2023-04-27T17:24:28.640Z,12.34
2023-04-27T17:25:27.529Z,12.35
2023-04-27T17:26:28.448Z,12.35
2023-04-27T17:27:29.445Z,12.28
2023-04-27T17:28:29.905Z,12.23
2023-04-27T17:29:30.840Z,12.16
2023-04-27T17:30:31.747Z,12.13
2023-04-27T17:31:32.710Z,12.14
2023-04-27T17:32:33.691Z,12.13
2023-04-27T17:33:34.124Z,12.05
2023-04-27T17:34:35.073Z,12.05
2023-04-27T17:35:36.000Z,12.02
2023-04-27T17:36:36.443Z,11.99
2023-04-27T17:37:37.681Z,12.01
2023-04-27T17:38:38.106Z,12.05
2023-04-27T17:39:39.053Z,12.12